Terminal Aerodrome Forecast
Issued by NWS

Home | Current Version | Previous Version | Text Only | Print | Product List | Glossary Off
Versions: 1 2 3 4 5 6 7 8 9 10 11 12 13 14 15

000
FTUS43 KFGF 292335
TAFBJI
TAF
KBJI 292335Z 3000/3024 14008KT P6SM SCT250
     FM301000 15004KT P6SM SCT250
     FM302300 09006KT P6SM FEW200=

USA.gov is the U.S. government's official web portal to all federal, state and local government web resources and services.